• Join FlightAware (Why Join?)
  • Login
  • US Flag 
03:00AM EDT


 

Airport Tracker/Info


-or-


 

Live Flight TrackerFlight Track Log ✈ TAM3421 ✈ 29-Apr-2013 ✈ SBBE / BEL - SBGL / GIG

Flight Track Log - Related Links

Times and Time Zones

All times are in EDT time to prevent confusion due to time zone crossing. See the TAM3421 flight status page for this flight to view local times or setup timezone preferences in your user account.

Time Position Orientation Groundspeed Altitude Reporting Facility
EDT Latitude Longitude Course Direction KTS MPH feet Rate Location/Type
05:44PM -6.2456 -47.3514 167° South  Level Estimated
05:45PM -6.3562 -47.3256 167° South  Level Estimated
05:46PM -6.4667 -47.2999 167° South  Level Estimated
05:47PM -6.5773 -47.2741 167° South  Level Estimated
05:48PM -6.6879 -47.2483 167° South  Level Estimated
05:49PM -6.7984 -47.2225 167° South  Level Estimated
05:50PM -6.9090 -47.1967 167° South  Level Estimated
05:51PM -7.0196 -47.1709 167° South  Level Estimated
05:52PM -7.1301 -47.1451 167° South  Level Estimated
05:53PM -7.2407 -47.1192 167° South  Level Estimated
05:54PM -7.3513 -47.0934 167° South  Level Estimated
05:55PM -7.4619 -47.0675 167° South  Level Estimated
05:56PM -7.5724 -47.0416 167° South  Level Estimated
05:57PM -7.6830 -47.0157 167° South  Level Estimated
05:58PM -7.7935 -46.9898 167° South  Level Estimated
05:59PM -7.9041 -46.9639 167° South  Level Estimated
06:00PM -8.0147 -46.9380 167° South  Level Estimated
06:01PM -8.1252 -46.9120 167° South  Level Estimated
06:02PM -8.2358 -46.8861 167° South  Level Estimated
06:03PM -8.3463 -46.8601 167° South  Level Estimated
06:04PM -8.4569 -46.8341 167° South  Level Estimated
06:05PM -8.5674 -46.8081 167° South  Level Estimated
06:06PM -8.6779 -46.7821 167° South  Level Estimated
06:07PM -8.7885 -46.7560 167° South  Level Estimated
06:08PM -8.8990 -46.7300 167° South  Level Estimated
06:08PM -9.1890 -46.5840 167° South 486 559 36,000  Level FlightAware
06:09PM -9.0096 -46.7039 167° South  Level Estimated
06:10PM -9.1890 -46.5840 167° South 485 558 36,000  Level FlightAware
06:11PM -9.3950 -46.5420 169° South 485 558 36,000  Level FlightAware
06:11PM -9.5390 -46.5120 168° South 485 558 36,000  Level FlightAware
06:12PM -9.6130 -46.4960 168° South 485 558 36,000  Level FlightAware
06:13PM -9.7230 -46.4690 166° South 482 555 36,000  Level FlightAware
06:13PM -9.8060 -46.4480 166° South 480 552 36,000  Level FlightAware
06:14PM -9.8980 -46.4250 166° South 480 552 36,000  Level FlightAware
06:15PM -10.0110 -46.4010 168° South 479 551 36,000  Level FlightAware
06:15PM -10.0870 -46.3820 166° South 479 551 36,000  Level FlightAware
06:16PM -10.1600 -46.3630 166° South 479 551 36,000  Level FlightAware
06:17PM -10.2330 -46.3450 166° South 479 551 36,000  Level FlightAware
06:18PM -10.3240 -46.3210 165° South 479 551 36,000  Level FlightAware
06:18PM -10.3980 -46.3030 167° South 479 551 36,000  Level FlightAware
06:19PM -10.4710 -46.2840 166° South 479 551 36,000  Level FlightAware
06:20PM -10.5440 -46.2660 166° South 479 551 36,000  Level FlightAware
06:20PM -10.6170 -46.2470 166° South 479 551 36,000  Level FlightAware
06:21PM -10.7080 -46.2240 166° South 479 551 36,000  Level FlightAware
06:22PM -10.9170 -46.1860 170° South 472 543 36,000  Level FlightAware
06:23PM -11.0230 -46.1600 166° South 472 543 36,000  Level FlightAware
06:23PM -11.1130 -46.1370 166° South 472 543 36,000  Level FlightAware
06:24PM -11.1850 -46.1190 166° South 472 543 36,000  Level FlightAware
06:25PM -11.2570 -46.1000 165° South 472 543 36,000  Level FlightAware
06:25PM -11.3290 -46.0820 166° South 472 543 36,000  Level FlightAware
06:26PM -11.4010 -46.0640 166° South 472 543 36,000  Level FlightAware
06:27PM -11.4910 -46.0410 166° South 472 543 36,000  Level FlightAware
06:28PM -11.5630 -46.0220 166° South 472 543 36,000  Level FlightAware
06:28PM -11.6350 -46.0040 166° South 472 543 36,000  Level FlightAware
06:29PM -11.7070 -45.9860 166° South 472 543 36,000  Level FlightAware
06:30PM -11.7790 -45.9670 166° South 472 543 36,000  Level FlightAware
06:30PM -11.8690 -45.9440 166° South 472 543 36,000  Level FlightAware
06:31PM -11.9410 -45.9260 166° South 472 543 36,000  Level FlightAware
06:32PM -12.0130 -45.9080 166° South 472 543 36,000  Level FlightAware
06:34PM -12.2122 -45.8614 167° South  Level Estimated
06:35PM -12.3228 -45.8355 167° South  Level Estimated
06:36PM -12.4334 -45.8096 167° South  Level Estimated
06:37PM -12.5441 -45.7837 167° South  Level Estimated
06:38PM -12.6547 -45.7577 167° South  Level Estimated
06:39PM -12.7654 -45.7317 167° South  Level Estimated
06:40PM -12.8760 -45.7057 167° South  Level Estimated
06:41PM -12.9866 -45.6797 167° South  Level Estimated
06:42PM -13.0972 -45.6536 167° South  Level Estimated
06:43PM -13.2079 -45.6275 167° South  Level Estimated
06:44PM -13.3185 -45.6014 167° South  Level Estimated
06:45PM -13.4291 -45.5753 167° South  Level Estimated
06:46PM -13.5397 -45.5491 167° South  Level Estimated
06:47PM -13.6503 -45.5230 167° South  Level Estimated
06:48PM -13.7609 -45.4968 167° South  Level Estimated
06:49PM -13.8715 -45.4705 167° South  Level Estimated
06:50PM -13.9821 -45.4443 167° South  Level Estimated
06:51PM -14.0927 -45.4180 167° South  Level Estimated
06:52PM -14.2033 -45.3917 167° South  Level Estimated
06:53PM -14.3139 -45.3654 167° South  Level Estimated
06:54PM -14.4245 -45.3390 167° South  Level Estimated
06:55PM -14.5351 -45.3126 167° South  Level Estimated
06:56PM -14.6457 -45.2862 167° South  Level Estimated
06:57PM -14.7563 -45.2598 167° South  Level Estimated
06:58PM -14.8668 -45.2333 167° South  Level Estimated
06:59PM -14.9774 -45.2069 167° South  Level Estimated
07:00PM -15.0880 -45.1804 167° South  Level Estimated
07:01PM -15.1986 -45.1538 167° South  Level Estimated
07:02PM -15.3091 -45.1272 167° South  Level Estimated
07:03PM -15.4197 -45.1006 167° South  Level Estimated
07:03PM -16.1850 -44.9060 167° South 473 544 36,000  Level FlightAware
07:04PM -15.5303 -45.0740 167° South  Level Estimated
07:04PM -16.2920 -44.8790 166° South 471 542 36,000  Level FlightAware
07:04PM -16.3670 -44.8610 167° South 470 541 36,000  Level FlightAware
07:05PM -16.4590 -44.8370 166° South 469 540 36,000  Level FlightAware
07:06PM -16.5580 -44.8120 166° South 468 539 36,000  Level FlightAware
07:07PM -16.6740 -44.7830 167° South 470 541 36,000  Level FlightAware
07:07PM -16.7530 -44.7630 166° South 471 542 36,000  Level FlightAware
07:08PM -16.8520 -44.7380 166° South 470 541 36,000  Level FlightAware
07:09PM -16.9370 -44.7170 167° South 468 539 36,000  Level FlightAware
07:09PM -17.0250 -44.6960 167° South 470 541 36,000  Level FlightAware
07:10PM -17.1130 -44.6740 167° South 470 541 36,000  Level FlightAware
07:11PM -17.2030 -44.6520 167° South 465 535 36,000  Level FlightAware
07:11PM -17.2770 -44.6340 167° South 463 533 36,000  Level FlightAware
07:12PM -17.3790 -44.6080 166° South 462 532 36,000  Level FlightAware
07:13PM -17.4480 -44.5920 168° South 462 532 36,000  Level FlightAware
07:14PM -17.5580 -44.5640 166° South 465 535 36,000  Level FlightAware
07:14PM -17.6400 -44.5440 167° South 468 539 36,000  Level FlightAware
07:15PM -17.7380 -44.5190 166° South 471 542 36,000  Level FlightAware
07:16PM -17.8220 -44.4960 165° South 471 542 36,000  Level FlightAware
07:16PM -17.9050 -44.4730 165° South 470 541 36,000  Level FlightAware
07:17PM -18.0000 -44.4480 166° South 469 540 36,000  Level FlightAware
07:18PM -18.0850 -44.4260 166° South 466 536 36,000  Level FlightAware
07:18PM -18.1790 -44.4020 166° South 465 535 36,000  Level FlightAware
07:19PM -18.2630 -44.3810 167° South 467 537 36,000  Level FlightAware
07:20PM -18.3470 -44.3590 166° South 467 537 36,000  Level FlightAware
07:21PM -18.4440 -44.3350 167° South 466 536 36,000  Level FlightAware
07:21PM -18.5270 -44.3130 166° South 465 535 36,000  Level FlightAware
07:22PM -18.6220 -44.2890 167° South 464 534 36,000  Level FlightAware
07:23PM -18.7060 -44.2680 167° South 464 534 36,000  Level FlightAware
07:23PM -18.7980 -44.2440 166° South 463 533 36,000  Level FlightAware
07:24PM -18.8830 -44.2230 167° South 465 535 36,000  Level FlightAware
07:25PM -18.9670 -44.2010 166° South 466 536 36,000  Level FlightAware
07:25PM -19.0570 -44.1780 166° South 467 537 36,000  Level FlightAware
07:26PM -19.1470 -44.1550 166° South 467 537 36,000  Level FlightAware
07:27PM -19.2280 -44.1340 166° South 465 535 36,000  Level FlightAware
07:28PM -19.3230 -44.1090 166° South 466 536 36,000  Level FlightAware
07:28PM -19.4050 -44.0880 166° South 464 534 36,000  Level FlightAware
07:29PM -19.4940 -44.0650 166° South 462 532 36,000  Level FlightAware
07:30PM -19.5660 -44.0470 167° South 461 531 36,000  Level FlightAware
07:30PM -19.6530 -44.0280 168° South 461 531 36,000  Level FlightAware
07:31PM -19.7240 -44.0120 168° South 461 531 36,000  Level FlightAware
07:32PM -19.7940 -43.9960 168° South 461 531 36,000  Level FlightAware
07:32PM -19.8650 -43.9800 168° South 461 531 36,000  Level FlightAware
07:33PM -19.9200 -43.9090 129° Southeast 490 564 36,000  Level FlightAware
07:34PM -19.9890 -43.8490 141° Southeast 490 564 36,000  Level FlightAware
07:34PM -20.0480 -43.7980 141° Southeast 490 564 36,000  Level FlightAware
07:35PM -20.1080 -43.7460 141° Southeast 490 564 36,000  Level FlightAware
07:36PM -20.1870 -43.6370 128° Southeast 489 563 36,000  Level FlightAware
07:36PM -20.2590 -43.5930 150° Southeast 470 541 36,000  Level FlightAware
07:38PM -20.5010 -43.6390 190° South 432 497 36,000  Level FlightAware
07:38PM -20.5650 -43.6630 199° South 432 497 36,000  Level FlightAware
07:39PM -20.6620 -43.7010 200° South 432 497 36,000  Level FlightAware
07:40PM -20.7600 -43.7380 199° South 422 486 36,000  Level FlightAware
07:41PM -20.8310 -43.7660 200° South 416 479 36,000  Level FlightAware
07:42PM -20.8490 -43.7730 200° South 413 475 36,000  Level FlightAware
07:42PM -20.9380 -43.8070 200° South 414 476 36,000  Level FlightAware
07:43PM -20.9980 -43.8310 200° South 416 479 36,000  Level FlightAware
07:43PM -21.0700 -43.8590 200° South 417 480 36,000  Level FlightAware
07:44PM -21.2240 -43.9180 200° South 415 478 36,000 -1,140 Level FlightAware
07:45PM -21.2990 -43.9480 200° South 418 481 34,200 -2,520 Descending FlightAware
07:46PM -21.3740 -43.9770 200° South 412 474 32,700 -2,100 Descending FlightAware
07:46PM -21.4410 -44.0030 200° South 407 468 31,400 -2,220 Descending FlightAware
07:47PM -21.5230 -44.0350 200° South 403 464 29,600 -2,280 Descending FlightAware
07:48PM -21.5980 -44.0640 200° South 400 460 28,000 -540 Descending FlightAware
07:49PM -21.5660 -44.0520 19° North 401 461 28,700 -960 Climbing FlightAware
07:49PM -21.6680 -44.0920 200° South 397 457 26,500 -1,800 Descending FlightAware
07:50PM -21.7210 -44.1130 200° South 397 457 26,500  Level FlightAware
07:51PM -21.7940 -44.1410 200° South 397 457 26,500  Level FlightAware
07:52PM -21.8530 -44.1640 200° South 397 457 26,500  Level FlightAware
07:52PM -21.9120 -44.1870 200° South 397 457 26,500 -4,140 Level FlightAware
07:52PM -22.0490 -44.1100 152° Southeast 18,300 -5,640 Descending FlightAware
07:53PM -22.1140 -44.0670 148° Southeast 16,900 -1,380 Descending FlightAware
07:54PM -22.1800 -44.0230 148° Southeast 365 420 16,200 -420 Descending FlightAware
07:55PM -22.2280 -43.9900 148° Southeast 365 420 16,200  Level FlightAware
07:56PM -22.2890 -43.9490 148° Southeast 365 420 16,200 -3,240 Level FlightAware
07:56PM -22.3660 -43.8990 149° Southeast 346 398 11,400 -4,140 Descending FlightAware
07:57PM -22.4200 -43.8630 148° Southeast 322 371 10,700 -1,080 Descending FlightAware
07:58PM -22.4710 -43.8250 145° Southeast 307 353 9,900 -1,140 Descending FlightAware
07:58PM -22.4940 -43.8030 139° Southeast 301 346 9,400 -1,440 Descending FlightAware
07:59PM -22.5310 -43.7680 139° Southeast 294 338 8,600 -1,440 Descending FlightAware
07:59PM -22.5530 -43.7470 139° Southeast 288 331 8,100 -1,200 Descending FlightAware
07:59PM -22.5800 -43.7220 139° Southeast 287 330 7,500 -960 Descending FlightAware
08:00PM -22.5970 -43.7060 139° Southeast 292 336 7,400 -420 Descending FlightAware
08:00PM -22.6110 -43.6880 130° Southeast 299 344 7,300 -1,200 Descending FlightAware
08:00PM -22.6310 -43.6510 120° Southeast 298 343 6,600 -1,320 Descending FlightAware
08:01PM -22.6440 -43.6250 118° Southeast 292 336 6,200 -1,200 Descending FlightAware
08:01PM -22.6660 -43.5830 120° Southeast 283 326 5,400 -1,320 Descending FlightAware
08:02PM -22.6800 -43.5560 119° Southeast 277 319 5,000 -600 Descending FlightAware
08:02PM -22.7010 -43.5150 119° Southeast 250 288 4,900 -600 Descending FlightAware
08:03PM -22.7210 -43.4470 108° East 221 254 4,100 -540 Descending FlightAware
08:04PM -22.7230 -43.4170 94° East 216 249 4,100 -1,020 Level FlightAware
08:05PM -22.7490 -43.3600 116° Southeast 185 213 2,400 -1,440 Descending FlightAware
08:06PM -22.7700 -43.3280 125° Southeast 141 162 1,400 -780 Descending FlightAware
08:06PM -22.7820 -43.3090 124° Southeast 139 160 1,300 -720 Descending FlightAware
08:07PM -22.7960 -43.2880 126° Southeast 131 151 500 -720 Descending FlightAware
08:08PM -22.8060 -43.2730 126° Southeast 132 152 500  Level FlightAware
08:10PM -22.8089 -43.2436 96° East  Level Estimated
08:11PM -22.8089 -43.2436 137° Southeast  Level Estimated
08:12PM -22.8089 -43.2436 137° Southeast  Level Estimated
08:13PM -22.8089 -43.2436 137° Southeast  Level Estimated
08:14PM -22.8089 -43.2436 137° Southeast  Level Estimated
08:15PM -22.8089 -43.2436 137° Southeast  Level Estimated
08:16PM -22.8089 -43.2436 137° Southeast  Level Estimated
08:17PM -22.8089 -43.2436 137° Southeast  Level Estimated
08:18PM -22.8089 -43.2436 137° Southeast  Level Estimated
08:19PM -22.8089 -43.2436 137° Southeast  Level Estimated
08:20PM -22.8089 -43.2436 137° Southeast  Level Estimated
08:21PM -22.8089 -43.2436 137° Southeast  Level Estimated
08:22PM -22.8089 -43.2436 137° Southeast  Level Estimated
08:23PM -22.8089 -43.2436 137° Southeast  Level Estimated
08:24PM -22.8089 -43.2436 137° Southeast  Level Estimated
08:25PM -22.8089 -43.2436 137° Southeast  Level Estimated
08:26PM -22.8089 -43.2436 137° Southeast  Level Estimated
08:27PM -22.8089 -43.2436 137° Southeast  Level Estimated
08:28PM -22.8089 -43.2436 137° Southeast  Level Estimated
08:29PM -22.8089 -43.2436 137° Southeast  Level Estimated
08:30PM -22.8089 -43.2436 137° Southeast  Level Estimated